sensor_id;sensor_type;location;lat;lon;timestamp;pressure;altitude;pressure_sealevel;temperature;humidity
54882;BME280;40775;51.448;4.742;2023-07-20T00:00:07;101352.84;;;18.99;100.00
54882;BME280;40775;51.448;4.742;2023-07-20T00:02:35;101351.97;;;18.97;100.00
54882;BME280;40775;51.448;4.742;2023-07-20T00:05:02;101352.84;;;18.99;100.00
54882;BME280;40775;51.448;4.742;2023-07-20T00:07:29;101344.00;;;18.95;100.00
54882;BME280;40775;51.448;4.742;2023-07-20T00:09:56;101342.22;;;18.96;100.00
54882;BME280;40775;51.448;4.742;2023-07-20T00:12:23;101344.88;;;18.90;100.00
54882;BME280;40775;51.448;4.742;2023-07-20T00:14:50;101352.00;;;18.86;100.00
54882;BME280;40775;51.448;4.742;2023-07-20T00:17:20;101357.31;;;18.91;100.00
54882;BME280;40775;51.448;4.742;2023-07-20T00:19:47;101358.19;;;18.90;100.00
54882;BME280;40775;51.448;4.742;2023-07-20T00:22:15;101353.78;;;18.90;100.00
54882;BME280;40775;51.448;4.742;2023-07-20T00:24:42;101344.00;;;18.88;100.00
54882;BME280;40775;51.448;4.742;2023-07-20T00:27:09;101349.34;;;18.84;100.00
54882;BME280;40775;51.448;4.742;2023-07-20T00:29:36;101351.97;;;18.89;100.00
54882;BME280;40775;51.448;4.742;2023-07-20T00:32:03;101350.25;;;18.82;100.00
54882;BME280;40775;51.448;4.742;2023-07-20T00:34:32;101345.81;;;18.81;100.00
54882;BME280;40775;51.448;4.742;2023-07-20T00:36:59;101344.94;;;18.80;100.00
54882;BME280;40775;51.448;4.742;2023-07-20T00:39:26;101354.72;;;18.75;100.00
54882;BME280;40775;51.448;4.742;2023-07-20T00:41:53;101356.53;;;18.70;100.00
54882;BME280;40775;51.448;4.742;2023-07-20T00:44:20;101361.84;;;18.70;100.00
54882;BME280;40775;51.448;4.742;2023-07-20T00:46:48;101361.88;;;18.67;100.00
54882;BME280;40775;51.448;4.742;2023-07-20T00:49:18;101363.63;;;18.61;100.00
54882;BME280;40775;51.448;4.742;2023-07-20T00:51:48;101363.66;;;18.65;100.00
54882;BME280;40775;51.448;4.742;2023-07-20T00:54:16;101361.00;;;18.65;100.00
54882;BME280;40775;51.448;4.742;2023-07-20T00:56:44;101370.75;;;18.63;100.00
54882;BME280;40775;51.448;4.742;2023-07-20T00:59:11;101364.50;;;18.61;100.00
54882;BME280;40775;51.448;4.742;2023-07-20T01:01:38;101359.22;;;18.57;100.00
54882;BME280;40775;51.448;4.742;2023-07-20T01:04:05;101361.88;;;18.55;100.00
54882;BME280;40775;51.448;4.742;2023-07-20T01:10:01;101370.78;;;18.45;100.00
54882;BME280;40775;51.448;4.742;2023-07-20T01:12:13;101377.00;;;18.41;100.00
54882;BME280;40775;51.448;4.742;2023-07-20T01:14:45;101391.22;;;18.37;100.00
54882;BME280;40775;51.448;4.742;2023-07-20T01:17:12;101393.88;;;18.37;100.00
54882;BME280;40775;51.448;4.742;2023-07-20T01:19:40;101399.16;;;18.34;100.00
54882;BME280;40775;51.448;4.742;2023-07-20T01:29:02;101392.09;;;18.27;100.00
54882;BME280;40775;51.448;4.742;2023-07-20T01:31:33;101400.09;;;18.23;100.00
54882;BME280;40775;51.448;4.742;2023-07-20T01:34:02;101397.44;;;18.17;100.00
54882;BME280;40775;51.448;4.742;2023-07-20T01:36:36;101393.03;;;18.12;100.00
54882;BME280;40775;51.448;4.742;2023-07-20T01:39:04;101402.78;;;18.14;100.00
54882;BME280;40775;51.448;4.742;2023-07-20T01:41:33;101394.81;;;18.08;100.00
54882;BME280;40775;51.448;4.742;2023-07-20T01:44:00;101393.91;;;18.06;100.00
54882;BME280;40775;51.448;4.742;2023-07-20T01:46:30;101415.16;;;18.05;100.00
54882;BME280;40775;51.448;4.742;2023-07-20T01:48:57;101402.78;;;17.99;100.00
54882;BME280;40775;51.448;4.742;2023-07-20T01:51:24;101401.00;;;17.98;100.00
54882;BME280;40775;51.448;4.742;2023-07-20T01:53:51;101409.88;;;17.94;100.00
54882;BME280;40775;51.448;4.742;2023-07-20T01:56:19;101415.19;;;17.89;100.00
54882;BME280;40775;51.448;4.742;2023-07-20T01:58:46;101413.44;;;17.85;100.00
54882;BME280;40775;51.448;4.742;2023-07-20T02:01:13;101412.56;;;17.86;100.00
54882;BME280;40775;51.448;4.742;2023-07-20T02:03:40;101419.63;;;17.89;100.00
54882;BME280;40775;51.448;4.742;2023-07-20T02:06:07;101419.63;;;17.84;100.00
54882;BME280;40775;51.448;4.742;2023-07-20T02:08:34;101418.75;;;17.84;100.00
54882;BME280;40775;51.448;4.742;2023-07-20T02:11:01;101408.13;;;17.84;100.00
54882;BME280;40775;51.448;4.742;2023-07-20T02:13:29;101410.75;;;17.76;100.00
54882;BME280;40775;51.448;4.742;2023-07-20T02:15:56;101411.66;;;17.74;100.00
54882;BME280;40775;51.448;4.742;2023-07-20T02:18:23;101403.69;;;17.72;100.00
54882;BME280;40775;51.448;4.742;2023-07-20T02:20:53;101404.56;;;17.68;100.00
54882;BME280;40775;51.448;4.742;2023-07-20T02:23:20;101403.66;;;17.66;100.00
54882;BME280;40775;51.448;4.742;2023-07-20T02:25:47;101414.31;;;17.68;100.00
54882;BME280;40775;51.448;4.742;2023-07-20T02:28:15;101410.75;;;17.64;100.00
54882;BME280;40775;51.448;4.742;2023-07-20T02:30:42;101415.16;;;17.64;100.00
54882;BME280;40775;51.448;4.742;2023-07-20T02:33:09;101422.25;;;17.63;100.00
54882;BME280;40775;51.448;4.742;2023-07-20T02:35:36;101421.38;;;17.61;100.00
54882;BME280;40775;51.448;4.742;2023-07-20T02:38:03;101418.72;;;17.61;100.00
54882;BME280;40775;51.448;4.742;2023-07-20T02:40:30;101423.13;;;17.59;100.00
54882;BME280;40775;51.448;4.742;2023-07-20T02:42:57;101422.22;;;17.48;100.00
54882;BME280;40775;51.448;4.742;2023-07-20T02:45:24;101429.28;;;17.38;100.00
54882;BME280;40775;51.448;4.742;2023-07-20T02:47:51;101420.44;;;17.39;100.00
54882;BME280;40775;51.448;4.742;2023-07-20T02:50:18;101427.53;;;17.34;100.00
54882;BME280;40775;51.448;4.742;2023-07-20T02:52:45;101439.03;;;17.39;100.00
54882;BME280;40775;51.448;4.742;2023-07-20T02:55:12;101446.97;;;17.36;100.00
54882;BME280;40775;51.448;4.742;2023-07-20T02:57:39;101438.13;;;17.34;100.00
54882;BME280;40775;51.448;4.742;2023-07-20T03:00:07;101439.03;;;17.30;100.00
54882;BME280;40775;51.448;4.742;2023-07-20T03:02:34;101448.72;;;17.25;100.00
54882;BME280;40775;51.448;4.742;2023-07-20T03:05:02;101446.06;;;17.20;100.00
54882;BME280;40775;51.448;4.742;2023-07-20T03:07:32;101463.72;;;17.15;100.00
54882;BME280;40775;51.448;4.742;2023-07-20T03:09:59;101450.47;;;17.14;100.00
54882;BME280;40775;51.448;4.742;2023-07-20T03:12:26;101454.88;;;17.18;100.00
54882;BME280;40775;51.448;4.742;2023-07-20T03:14:54;101454.00;;;17.16;100.00
54882;BME280;40775;51.448;4.742;2023-07-20T03:17:22;101446.03;;;17.14;100.00
54882;BME280;40775;51.448;4.742;2023-07-20T03:19:49;101441.59;;;17.07;100.00
54882;BME280;40775;51.448;4.742;2023-07-20T03:22:16;101442.50;;;17.09;100.00
54882;BME280;40775;51.448;4.742;2023-07-20T03:24:43;101452.22;;;17.03;100.00
54882;BME280;40775;51.448;4.742;2023-07-20T03:27:10;101450.44;;;17.02;100.00
54882;BME280;40775;51.448;4.742;2023-07-20T03:29:37;101461.88;;;16.96;100.00
54882;BME280;40775;51.448;4.742;2023-07-20T03:32:05;101460.97;;;16.92;100.00
54882;BME280;40775;51.448;4.742;2023-07-20T03:34:32;101465.41;;;16.90;100.00
54882;BME280;40775;51.448;4.742;2023-07-20T03:36:59;101463.63;;;16.89;100.00
54882;BME280;40775;51.448;4.742;2023-07-20T03:39:26;101461.84;;;16.88;100.00
54882;BME280;40775;51.448;4.742;2023-07-20T03:41:53;101470.69;;;16.87;100.00
54882;BME280;40775;51.448;4.742;2023-07-20T03:44:20;101475.13;;;16.87;100.00
54882;BME280;40775;51.448;4.742;2023-07-20T03:46:47;101475.13;;;16.88;100.00
54882;BME280;40775;51.448;4.742;2023-07-20T03:49:14;101472.47;;;16.85;100.00
54882;BME280;40775;51.448;4.742;2023-07-20T03:51:42;101465.41;;;16.89;100.00
54882;BME280;40775;51.448;4.742;2023-07-20T03:54:08;101462.75;;;16.96;100.00
54882;BME280;40775;51.448;4.742;2023-07-20T03:56:36;101462.72;;;16.84;100.00
54882;BME280;40775;51.448;4.742;2023-07-20T03:59:04;101464.53;;;16.91;100.00
54882;BME280;40775;51.448;4.742;2023-07-20T04:01:31;101460.97;;;16.86;100.00
54882;BME280;40775;51.448;4.742;2023-07-20T04:04:07;101465.38;;;16.86;100.00
54882;BME280;40775;51.448;4.742;2023-07-20T04:06:35;101453.00;;;16.85;100.00
54882;BME280;40775;51.448;4.742;2023-07-20T04:09:03;101460.06;;;16.84;100.00
54882;BME280;40775;51.448;4.742;2023-07-20T04:11:31;101467.16;;;16.88;100.00
54882;BME280;40775;51.448;4.742;2023-07-20T04:13:58;101466.28;;;16.86;100.00
54882;BME280;40775;51.448;4.742;2023-07-20T04:16:25;101464.50;;;16.84;100.00
54882;BME280;40775;51.448;4.742;2023-07-20T04:18:56;101472.47;;;16.85;100.00
54882;BME280;40775;51.448;4.742;2023-07-20T04:21:26;101473.34;;;16.87;100.00
54882;BME280;40775;51.448;4.742;2023-07-20T04:23:53;101474.22;;;16.88;100.00
54882;BME280;40775;51.448;4.742;2023-07-20T04:26:21;101478.66;;;16.87;100.00
54882;BME280;40775;51.448;4.742;2023-07-20T04:28:48;101469.81;;;16.85;100.00
54882;BME280;40775;51.448;4.742;2023-07-20T04:31:17;101471.59;;;16.88;100.00
54882;BME280;40775;51.448;4.742;2023-07-20T04:33:44;101470.72;;;16.90;100.00
54882;BME280;40775;51.448;4.742;2023-07-20T04:36:12;101471.56;;;16.85;100.00
54882;BME280;40775;51.448;4.742;2023-07-20T04:38:40;101477.78;;;16.88;100.00
54882;BME280;40775;51.448;4.742;2023-07-20T04:41:07;101483.06;;;16.90;100.00
54882;BME280;40775;51.448;4.742;2023-07-20T04:43:34;101478.66;;;16.87;100.00
54882;BME280;40775;51.448;4.742;2023-07-20T04:46:01;101491.03;;;16.88;100.00
54882;BME280;40775;51.448;4.742;2023-07-20T04:48:28;101494.59;;;16.93;100.00
54882;BME280;40775;51.448;4.742;2023-07-20T04:50:55;101501.66;;;16.94;100.00
54882;BME280;40775;51.448;4.742;2023-07-20T04:53:22;101497.25;;;16.98;100.00
54882;BME280;40775;51.448;4.742;2023-07-20T04:55:50;101499.06;;;17.01;100.00
54882;BME280;40775;51.448;4.742;2023-07-20T04:58:20;101497.31;;;17.04;100.00
54882;BME280;40775;51.448;4.742;2023-07-20T05:00:51;101501.72;;;17.07;100.00
54882;BME280;40775;51.448;4.742;2023-07-20T05:03:18;101513.25;;;17.12;100.00
54882;BME280;40775;51.448;4.742;2023-07-20T05:05:47;101501.75;;;17.16;100.00
54882;BME280;40775;51.448;4.742;2023-07-20T05:08:16;101509.72;;;17.19;100.00
54882;BME280;40775;51.448;4.742;2023-07-20T05:10:43;101504.44;;;17.22;100.00
54882;BME280;40775;51.448;4.742;2023-07-20T05:13:10;101493.84;;;17.26;100.00
54882;BME280;40775;51.448;4.742;2023-07-20T05:15:37;101500.06;;;17.27;100.00
54882;BME280;40775;51.448;4.742;2023-07-20T05:18:05;101493.00;;;17.38;100.00
54882;BME280;40775;51.448;4.742;2023-07-20T05:20:32;101491.22;;;17.37;100.00
54882;BME280;40775;51.448;4.742;2023-07-20T05:23:00;101496.53;;;17.46;100.00
54882;BME280;40775;51.448;4.742;2023-07-20T05:25:29;101491.28;;;17.57;100.00
54882;BME280;40775;51.448;4.742;2023-07-20T05:27:57;101498.38;;;17.63;100.00
54882;BME280;40775;51.448;4.742;2023-07-20T05:30:24;101493.97;;;17.69;100.00
54882;BME280;40775;51.448;4.742;2023-07-20T05:32:51;101497.53;;;17.73;100.00
54882;BME280;40775;51.448;4.742;2023-07-20T05:35:19;101485.13;;;17.78;100.00
54882;BME280;40775;51.448;4.742;2023-07-20T05:37:47;101486.91;;;17.76;100.00
54882;BME280;40775;51.448;4.742;2023-07-20T05:40:14;101484.25;;;17.88;100.00
54882;BME280;40775;51.448;4.742;2023-07-20T05:42:46;101482.50;;;17.91;100.00
54882;BME280;40775;51.448;4.742;2023-07-20T05:45:14;101506.41;;;18.20;100.00
54882;BME280;40775;51.448;4.742;2023-07-20T05:47:43;101493.28;;;19.98;100.00
54882;BME280;40775;51.448;4.742;2023-07-20T05:50:11;101489.91;;;20.76;100.00
54882;BME280;40775;51.448;4.742;2023-07-20T05:52:38;101478.66;;;21.24;100.00
54882;BME280;40775;51.448;4.742;2023-07-20T05:55:06;101466.50;;;21.65;100.00
54882;BME280;40775;51.448;4.742;2023-07-20T05:57:33;101464.19;;;21.98;100.00
54882;BME280;40775;51.448;4.742;2023-07-20T06:00:06;101469.13;;;22.24;100.00
54882;BME280;40775;51.448;4.742;2023-07-20T06:02:33;101471.72;;;22.28;100.00
54882;BME280;40775;51.448;4.742;2023-07-20T06:05:01;101474.94;;;22.45;100.00
54882;BME280;40775;51.448;4.742;2023-07-20T06:07:30;101473.81;;;22.59;100.00
54882;BME280;40775;51.448;4.742;2023-07-20T06:09:58;101481.59;;;22.71;100.00
54882;BME280;40775;51.448;4.742;2023-07-20T06:12:26;101471.66;;;22.77;100.00
54882;BME280;40775;51.448;4.742;2023-07-20T06:14:52;101471.47;;;22.88;100.00
54882;BME280;40775;51.448;4.742;2023-07-20T06:17:20;101467.66;;;23.00;100.00
54882;BME280;40775;51.448;4.742;2023-07-20T06:19:47;101474.66;;;23.07;100.00
54882;BME280;40775;51.448;4.742;2023-07-20T06:22:14;101471.94;;;23.08;100.00
54882;BME280;40775;51.448;4.742;2023-07-20T06:24:42;101471.81;;;23.15;100.00
54882;BME280;40775;51.448;4.742;2023-07-20T06:27:09;101476.16;;;23.20;100.00
54882;BME280;40775;51.448;4.742;2023-07-20T06:29:36;101472.47;;;23.24;100.00
54882;BME280;40775;51.448;4.742;2023-07-20T06:32:04;101476.84;;;23.30;100.00
54882;BME280;40775;51.448;4.742;2023-07-20T06:34:31;101469.66;;;23.32;100.00
54882;BME280;40775;51.448;4.742;2023-07-20T06:37:04;101466.84;;;23.38;100.00
54882;BME280;40775;51.448;4.742;2023-07-20T06:39:31;101474.75;;;23.42;100.00
54882;BME280;40775;51.448;4.742;2023-07-20T06:42:01;101464.88;;;23.44;100.00
54882;BME280;40775;51.448;4.742;2023-07-20T06:44:28;101471.06;;;23.48;100.00
54882;BME280;40775;51.448;4.742;2023-07-20T06:46:55;101460.25;;;23.51;100.00
54882;BME280;40775;51.448;4.742;2023-07-20T06:49:27;101461.97;;;23.54;100.00
54882;BME280;40775;51.448;4.742;2023-07-20T06:51:54;101464.63;;;23.55;100.00
54882;BME280;40775;51.448;4.742;2023-07-20T06:54:21;101466.41;;;23.58;100.00
54882;BME280;40775;51.448;4.742;2023-07-20T06:56:50;101465.38;;;23.63;100.00
54882;BME280;40775;51.448;4.742;2023-07-20T06:59:37;101470.75;;;23.63;100.00
54882;BME280;40775;51.448;4.742;2023-07-20T07:02:08;101468.94;;;23.64;100.00
54882;BME280;40775;51.448;4.742;2023-07-20T07:04:41;101471.59;;;23.65;100.00
54882;BME280;40775;51.448;4.742;2023-07-20T07:07:09;101472.34;;;23.70;100.00
54882;BME280;40775;51.448;4.742;2023-07-20T07:09:36;101474.13;;;23.71;100.00
54882;BME280;40775;51.448;4.742;2023-07-20T07:12:04;101471.38;;;23.73;100.00
54882;BME280;40775;51.448;4.742;2023-07-20T07:14:31;101479.41;;;23.74;100.00
54882;BME280;40775;51.448;4.742;2023-07-20T07:16:59;101479.34;;;23.76;100.00
54882;BME280;40775;51.448;4.742;2023-07-20T07:19:31;101479.31;;;23.78;100.00
54882;BME280;40775;51.448;4.742;2023-07-20T07:21:58;101476.59;;;23.79;100.00
54882;BME280;40775;51.448;4.742;2023-07-20T07:24:27;101489.03;;;23.83;100.00
54882;BME280;40775;51.448;4.742;2023-07-20T07:27:00;101483.69;;;23.83;100.00
54882;BME280;40775;51.448;4.742;2023-07-20T07:29:28;101488.13;;;23.84;100.00
54882;BME280;40775;51.448;4.742;2023-07-20T07:31:55;101486.28;;;23.86;100.00
54882;BME280;40775;51.448;4.742;2023-07-20T07:34:22;101484.47;;;23.87;100.00
54882;BME280;40775;51.448;4.742;2023-07-20T07:36:49;101488.03;;;23.87;100.00
54882;BME280;40775;51.448;4.742;2023-07-20T07:39:17;101486.25;;;23.88;100.00
54882;BME280;40775;51.448;4.742;2023-07-20T07:41:47;101482.69;;;23.87;100.00
54882;BME280;40775;51.448;4.742;2023-07-20T07:44:14;101479.13;;;23.87;100.00
54882;BME280;40775;51.448;4.742;2023-07-20T07:46:41;101476.41;;;23.88;100.00
54882;BME280;40775;51.448;4.742;2023-07-20T07:49:09;101481.72;;;23.90;100.00
54882;BME280;40775;51.448;4.742;2023-07-20T07:51:36;101480.75;;;23.92;100.00
54882;BME280;40775;51.448;4.742;2023-07-20T07:54:03;101482.56;;;23.92;100.00
54882;BME280;40775;51.448;4.742;2023-07-20T07:56:31;101485.25;;;23.92;100.00
54882;BME280;40775;51.448;4.742;2023-07-20T07:58:57;101492.38;;;23.93;100.00
54882;BME280;40775;51.448;4.742;2023-07-20T08:01:25;101486.13;;;23.92;100.00
54882;BME280;40775;51.448;4.742;2023-07-20T08:03:52;101491.44;;;23.94;100.00
54882;BME280;40775;51.448;4.742;2023-07-20T08:06:19;101487.81;;;23.96;100.00
54882;BME280;40775;51.448;4.742;2023-07-20T08:08:46;101491.38;;;23.97;100.00
54882;BME280;40775;51.448;4.742;2023-07-20T08:11:13;101490.44;;;23.98;100.00
54882;BME280;40775;51.448;4.742;2023-07-20T08:16:08;101496.66;;;24.00;100.00
54882;BME280;40775;51.448;4.742;2023-07-20T08:18:35;101487.75;;;23.98;100.00
54882;BME280;40775;51.448;4.742;2023-07-20T08:21:03;101497.56;;;23.99;100.00
54882;BME280;40775;51.448;4.742;2023-07-20T08:23:30;101496.66;;;24.00;100.00
54882;BME280;40775;51.448;4.742;2023-07-20T08:25:57;101487.69;;;24.01;100.00
54882;BME280;40775;51.448;4.742;2023-07-20T08:28:24;101494.84;;;24.00;100.00
54882;BME280;40775;51.448;4.742;2023-07-20T08:30:51;101493.94;;;24.01;100.00
54882;BME280;40775;51.448;4.742;2023-07-20T08:33:18;101494.81;;;24.02;100.00
54882;BME280;40775;51.448;4.742;2023-07-20T08:35:50;101488.56;;;24.01;100.00
54882;BME280;40775;51.448;4.742;2023-07-20T08:38:17;101488.50;;;24.04;100.00
54882;BME280;40775;51.448;4.742;2023-07-20T08:40:46;101483.13;;;24.04;100.00
54882;BME280;40775;51.448;4.742;2023-07-20T08:43:14;101484.03;;;24.03;100.00
54882;BME280;40775;51.448;4.742;2023-07-20T08:45:45;101484.94;;;24.04;100.00
54882;BME280;40775;51.448;4.742;2023-07-20T08:48:12;101481.34;;;24.03;100.00
54882;BME280;40775;51.448;4.742;2023-07-20T08:50:40;101475.13;;;24.03;100.00
54882;BME280;40775;51.448;4.742;2023-07-20T08:53:08;101472.44;;;24.03;100.00
54882;BME280;40775;51.448;4.742;2023-07-20T08:55:37;101474.19;;;24.04;100.00
54882;BME280;40775;51.448;4.742;2023-07-20T08:58:08;101469.75;;;24.03;100.00
54882;BME280;40775;51.448;4.742;2023-07-20T09:00:38;101474.19;;;24.04;100.00
54882;BME280;40775;51.448;4.742;2023-07-20T09:03:07;101471.50;;;24.04;100.00
54882;BME280;40775;51.448;4.742;2023-07-20T09:05:35;101473.28;;;24.05;100.00
54882;BME280;40775;51.448;4.742;2023-07-20T09:08:02;101474.16;;;24.05;100.00
54882;BME280;40775;51.448;4.742;2023-07-20T09:10:32;101466.06;;;24.07;100.00
54882;BME280;40775;51.448;4.742;2023-07-20T09:12:59;101468.75;;;24.07;100.00
54882;BME280;40775;51.448;4.742;2023-07-20T09:15:29;101466.94;;;24.08;100.00
54882;BME280;40775;51.448;4.742;2023-07-20T09:18:00;101472.31;;;24.08;100.00
54882;BME280;40775;51.448;4.742;2023-07-20T09:20:32;101470.50;;;24.08;100.00
54882;BME280;40775;51.448;4.742;2023-07-20T09:23:03;101474.94;;;24.09;100.00
54882;BME280;40775;51.448;4.742;2023-07-20T09:25:31;101466.91;;;24.11;100.00
54882;BME280;40775;51.448;4.742;2023-07-20T09:28:02;101469.56;;;24.11;100.00
54882;BME280;40775;51.448;4.742;2023-07-20T09:30:32;101464.22;;;24.09;100.00
54882;BME280;40775;51.448;4.742;2023-07-20T09:33:00;101467.78;;;24.10;100.00
54882;BME280;40775;51.448;4.742;2023-07-20T09:35:27;101464.22;;;24.11;100.00
54882;BME280;40775;51.448;4.742;2023-07-20T09:38:08;101465.09;;;24.10;100.00
54882;BME280;40775;51.448;4.742;2023-07-20T09:40:39;101464.22;;;24.11;100.00
54882;BME280;40775;51.448;4.742;2023-07-20T09:43:09;101469.53;;;24.12;100.00
54882;BME280;40775;51.448;4.742;2023-07-20T09:45:41;101467.78;;;24.11;100.00
54882;BME280;40775;51.448;4.742;2023-07-20T09:48:12;101467.78;;;24.11;100.00
54882;BME280;40775;51.448;4.742;2023-07-20T09:50:49;101463.28;;;24.12;100.00
54882;BME280;40775;51.448;4.742;2023-07-20T09:53:18;101465.97;;;24.12;100.00
54882;BME280;40775;51.448;4.742;2023-07-20T09:55:47;101458.81;;;24.12;100.00
54882;BME280;40775;51.448;4.742;2023-07-20T09:58:16;101465.94;;;24.13;100.00
54882;BME280;40775;51.448;4.742;2023-07-20T10:00:44;101462.31;;;24.14;100.00
54882;BME280;40775;51.448;4.742;2023-07-20T10:03:29;101452.56;;;24.46;100.00
54882;BME280;40775;51.448;4.742;2023-07-20T10:06:06;101459.25;;;24.29;100.00
54882;BME280;40775;51.448;4.742;2023-07-20T10:08:41;101460.31;;;24.22;100.00
54882;BME280;40775;51.448;4.742;2023-07-20T10:11:12;101452.34;;;24.19;100.00
54882;BME280;40775;51.448;4.742;2023-07-20T10:13:44;101461.31;;;24.18;100.00
54882;BME280;40775;51.448;4.742;2023-07-20T10:16:39;101453.31;;;24.17;100.00
54882;BME280;40775;51.448;4.742;2023-07-20T10:19:43;101447.94;;;24.17;100.00
54882;BME280;40775;51.448;4.742;2023-07-20T10:22:24;101446.19;;;24.16;100.00
54882;BME280;40775;51.448;4.742;2023-07-20T10:24:52;101446.16;;;24.17;100.00
54882;BME280;40775;51.448;4.742;2023-07-20T10:27:21;101455.06;;;24.18;100.00
54882;BME280;40775;51.448;4.742;2023-07-20T10:29:48;101449.72;;;24.18;100.00
54882;BME280;40775;51.448;4.742;2023-07-20T10:32:17;101445.22;;;24.18;100.00
54882;BME280;40775;51.448;4.742;2023-07-20T10:34:51;101446.09;;;24.19;100.00
54882;BME280;40775;51.448;4.742;2023-07-20T10:37:48;101441.63;;;24.19;100.00
54882;BME280;40775;51.448;4.742;2023-07-20T10:40:32;101443.38;;;24.20;100.00
54882;BME280;40775;51.448;4.742;2023-07-20T10:43:04;101442.53;;;24.18;100.00
54882;BME280;40775;51.448;4.742;2023-07-20T10:45:49;101427.38;;;24.50;100.00
54882;BME280;40775;51.448;4.742;2023-07-20T10:48:23;101438.72;;;24.28;100.00
54882;BME280;40775;51.448;4.742;2023-07-20T10:51:13;101441.50;;;24.24;100.00
54882;BME280;40775;51.448;4.742;2023-07-20T10:53:41;101426.41;;;24.52;100.00
54882;BME280;40775;51.448;4.742;2023-07-20T10:56:13;101433.13;;;24.36;100.00
54882;BME280;40775;51.448;4.742;2023-07-20T10:58:41;101437.81;;;24.28;100.00
54882;BME280;40775;51.448;4.742;2023-07-20T11:01:14;101434.31;;;24.24;100.00
54882;BME280;40775;51.448;4.742;2023-07-20T11:03:43;101430.81;;;24.22;100.00
54882;BME280;40775;51.448;4.742;2023-07-20T11:11:39;101426.34;;;24.21;100.00
54882;BME280;40775;51.448;4.742;2023-07-20T11:14:20;101428.13;;;24.22;100.00
54882;BME280;40775;51.448;4.742;2023-07-20T11:16:49;101424.50;;;24.23;100.00
54882;BME280;40775;51.448;4.742;2023-07-20T11:19:23;101421.88;;;24.22;100.00
54882;BME280;40775;51.448;4.742;2023-07-20T11:21:58;101429.88;;;24.23;100.00
54882;BME280;40775;51.448;4.742;2023-07-20T11:24:31;101427.16;;;24.25;100.00
54882;BME280;40775;51.448;4.742;2023-07-20T11:26:58;101420.91;;;24.24;100.00
54882;BME280;40775;51.448;4.742;2023-07-20T11:29:27;101426.28;;;24.24;100.00
54882;BME280;40775;51.448;4.742;2023-07-20T11:32:01;101425.34;;;24.25;100.00
54882;BME280;40775;51.448;4.742;2023-07-20T11:34:32;101426.28;;;24.24;100.00
54882;BME280;40775;51.448;4.742;2023-07-20T11:37:00;101418.16;;;24.26;100.00
54882;BME280;40775;51.448;4.742;2023-07-20T11:39:30;101419.97;;;24.25;100.00
54882;BME280;40775;51.448;4.742;2023-07-20T11:41:58;101420.84;;;24.26;100.00
54882;BME280;40775;51.448;4.742;2023-07-20T11:44:27;101428.91;;;24.26;100.00
54882;BME280;40775;51.448;4.742;2023-07-20T11:47:09;101424.41;;;24.26;100.00
54882;BME280;40775;51.448;4.742;2023-07-20T11:49:42;101420.81;;;24.27;100.00
54882;BME280;40775;51.448;4.742;2023-07-20T11:52:15;101419.94;;;24.27;100.00
54882;BME280;40775;51.448;4.742;2023-07-20T11:54:43;101419.94;;;24.27;100.00
54882;BME280;40775;51.448;4.742;2023-07-20T11:57:21;101423.50;;;24.27;100.00
54882;BME280;40775;51.448;4.742;2023-07-20T12:00:02;101410.09;;;24.27;100.00
54882;BME280;40775;51.448;4.742;2023-07-20T12:02:38;101402.03;;;24.27;100.00
54882;BME280;40775;51.448;4.742;2023-07-20T12:05:08;101406.50;;;24.28;100.00
54882;BME280;40775;51.448;4.742;2023-07-20T12:07:36;101402.94;;;24.28;100.00
54882;BME280;40775;51.448;4.742;2023-07-20T12:10:11;101406.50;;;24.28;100.00
54882;BME280;40775;51.448;4.742;2023-07-20T12:12:43;101410.94;;;24.29;100.00
54882;BME280;40775;51.448;4.742;2023-07-20T12:15:23;101404.66;;;24.30;100.00
54882;BME280;40775;51.448;4.742;2023-07-20T12:17:57;101394.84;;;24.29;100.00
54882;BME280;40775;51.448;4.742;2023-07-20T12:20:35;101400.97;;;24.34;100.00
54882;BME280;40775;51.448;4.742;2023-07-20T12:23:13;101394.72;;;24.34;100.00
54882;BME280;40775;51.448;4.742;2023-07-20T12:25:45;101399.16;;;24.35;100.00
54882;BME280;40775;51.448;4.742;2023-07-20T12:28:18;101395.59;;;24.34;100.00
54882;BME280;40775;51.448;4.742;2023-07-20T12:30:46;101392.91;;;24.34;100.00
54882;BME280;40775;51.448;4.742;2023-07-20T12:33:14;101389.31;;;24.35;100.00
54882;BME280;40775;51.448;4.742;2023-07-20T12:35:43;101386.72;;;24.32;100.00
54882;BME280;40775;51.448;4.742;2023-07-20T12:38:10;101385.19;;;24.55;100.00
54882;BME280;40775;51.448;4.742;2023-07-20T12:40:37;101383.53;;;24.80;100.00
54882;BME280;40775;51.448;4.742;2023-07-20T12:43:04;101364.44;;;24.60;100.00
54882;BME280;40775;51.448;4.742;2023-07-20T12:45:32;101370.94;;;24.53;100.00
54882;BME280;40775;51.448;4.742;2023-07-20T12:47:59;101363.47;;;24.62;100.00
54882;BME280;40775;51.448;4.742;2023-07-20T12:50:27;101366.47;;;24.52;100.00
54882;BME280;40775;51.448;4.742;2023-07-20T12:52:54;101364.91;;;24.45;100.00
54882;BME280;40775;51.448;4.742;2023-07-20T12:55:21;101356.03;;;24.43;100.00
54882;BME280;40775;51.448;4.742;2023-07-20T12:57:48;101350.47;;;24.49;100.00
54882;BME280;40775;51.448;4.742;2023-07-20T13:00:16;101357.63;;;24.48;100.00
54882;BME280;40775;51.448;4.742;2023-07-20T13:02:43;101355.94;;;24.46;100.00
54882;BME280;40775;51.448;4.742;2023-07-20T13:05:10;101347.22;;;25.26;95.90
54882;BME280;40775;51.448;4.742;2023-07-20T13:07:39;101350.22;;;24.86;100.00